Beulah, Canada
Current Conditions -  °F | °C
As of 10:00 AM on Monday 22 Dec 2014 (Local Time) from CYBR Reporting Station
Freezing Drizzle Freezing Drizzle  
Wind Chill: 20°   Ceiling: 300
Heat Index: 28°   Visibility: 1.2mi
Dew Point: 28°   Wind: 9mph
Humidity: 100%   Direction: 70°ENE
Pressure: 29.6"   Gusts: NA
Location:  50.27°N, 101.03°W
Report Text: CYBR 221600Z 07008KT 1 1/4SM -FZDZ BR OVC003 M02/M02 A2960 RMK ST8 CIG VRB 2-4 SLP047
Loading
Personal Weather Stations






























Interactive Weather Map New forecast layout! Learn more

10-Day Weather Forecast

Advertisements
Track Severe Weather on mobile